sensor_id;sensor_type;location;lat;lon;timestamp;P1;durP1;ratioP1;P2;durP2;ratioP2
4307;SDS011;2167;53.448;9.984;2023-10-31T00:01:17;4.80;;;3.80;;
4307;SDS011;2167;53.448;9.984;2023-10-31T00:03:43;5.73;;;3.87;;
4307;SDS011;2167;53.448;9.984;2023-10-31T00:06:09;7.37;;;5.23;;
4307;SDS011;2167;53.448;9.984;2023-10-31T00:08:35;6.13;;;4.20;;
4307;SDS011;2167;53.448;9.984;2023-10-31T00:11:01;5.90;;;3.93;;
4307;SDS011;2167;53.448;9.984;2023-10-31T00:13:27;5.60;;;3.27;;
4307;SDS011;2167;53.448;9.984;2023-10-31T00:15:53;6.00;;;4.20;;
4307;SDS011;2167;53.448;9.984;2023-10-31T00:18:19;9.13;;;3.83;;
4307;SDS011;2167;53.448;9.984;2023-10-31T00:26:23;5.33;;;3.93;;
4307;SDS011;2167;53.448;9.984;2023-10-31T00:28:58;5.60;;;4.20;;
4307;SDS011;2167;53.448;9.984;2023-10-31T00:31:24;7.00;;;4.50;;
4307;SDS011;2167;53.448;9.984;2023-10-31T00:33:53;5.33;;;3.70;;
4307;SDS011;2167;53.448;9.984;2023-10-31T00:36:20;5.73;;;3.50;;
4307;SDS011;2167;53.448;9.984;2023-10-31T00:38:46;4.60;;;4.00;;
4307;SDS011;2167;53.448;9.984;2023-10-31T00:41:12;5.47;;;4.03;;
4307;SDS011;2167;53.448;9.984;2023-10-31T00:43:38;5.80;;;4.03;;
4307;SDS011;2167;53.448;9.984;2023-10-31T00:46:04;5.30;;;3.53;;
4307;SDS011;2167;53.448;9.984;2023-10-31T00:48:30;12.00;;;4.33;;
4307;SDS011;2167;53.448;9.984;2023-10-31T00:51:01;5.97;;;3.23;;
4307;SDS011;2167;53.448;9.984;2023-10-31T00:53:27;4.40;;;3.77;;
4307;SDS011;2167;53.448;9.984;2023-10-31T00:55:53;7.43;;;3.80;;
4307;SDS011;2167;53.448;9.984;2023-10-31T00:58:19;5.50;;;3.80;;
4307;SDS011;2167;53.448;9.984;2023-10-31T01:00:45;4.83;;;3.60;;
4307;SDS011;2167;53.448;9.984;2023-10-31T01:03:11;5.97;;;3.80;;
4307;SDS011;2167;53.448;9.984;2023-10-31T01:05:37;4.73;;;3.53;;
4307;SDS011;2167;53.448;9.984;2023-10-31T01:08:03;8.13;;;5.23;;
4307;SDS011;2167;53.448;9.984;2023-10-31T01:10:30;5.50;;;3.90;;
4307;SDS011;2167;53.448;9.984;2023-10-31T01:12:56;4.80;;;4.03;;
4307;SDS011;2167;53.448;9.984;2023-10-31T01:15:22;6.83;;;3.40;;
4307;SDS011;2167;53.448;9.984;2023-10-31T01:17:48;4.67;;;3.60;;
4307;SDS011;2167;53.448;9.984;2023-10-31T01:20:14;5.90;;;3.60;;
4307;SDS011;2167;53.448;9.984;2023-10-31T01:22:40;5.07;;;3.33;;
4307;SDS011;2167;53.448;9.984;2023-10-31T01:25:06;6.93;;;4.20;;
4307;SDS011;2167;53.448;9.984;2023-10-31T01:27:34;5.57;;;3.37;;
4307;SDS011;2167;53.448;9.984;2023-10-31T01:30:00;10.47;;;3.90;;
4307;SDS011;2167;53.448;9.984;2023-10-31T01:32:26;4.63;;;3.13;;
4307;SDS011;2167;53.448;9.984;2023-10-31T01:34:52;4.30;;;3.57;;
4307;SDS011;2167;53.448;9.984;2023-10-31T01:37:18;11.23;;;3.80;;
4307;SDS011;2167;53.448;9.984;2023-10-31T01:39:45;5.80;;;3.80;;
4307;SDS011;2167;53.448;9.984;2023-10-31T01:42:14;8.33;;;4.37;;
4307;SDS011;2167;53.448;9.984;2023-10-31T01:44:40;4.83;;;3.67;;
4307;SDS011;2167;53.448;9.984;2023-10-31T01:47:06;5.87;;;3.60;;
4307;SDS011;2167;53.448;9.984;2023-10-31T01:49:32;4.67;;;3.57;;
4307;SDS011;2167;53.448;9.984;2023-10-31T01:51:59;5.40;;;3.77;;
4307;SDS011;2167;53.448;9.984;2023-10-31T01:54:25;6.30;;;3.70;;
4307;SDS011;2167;53.448;9.984;2023-10-31T01:56:52;6.80;;;3.90;;
4307;SDS011;2167;53.448;9.984;2023-10-31T01:59:21;4.80;;;3.00;;
4307;SDS011;2167;53.448;9.984;2023-10-31T02:01:47;4.50;;;3.07;;
4307;SDS011;2167;53.448;9.984;2023-10-31T02:04:14;4.10;;;2.50;;
4307;SDS011;2167;53.448;9.984;2023-10-31T02:06:40;3.10;;;2.10;;
4307;SDS011;2167;53.448;9.984;2023-10-31T02:09:06;6.40;;;2.97;;
4307;SDS011;2167;53.448;9.984;2023-10-31T02:11:32;4.97;;;3.23;;
4307;SDS011;2167;53.448;9.984;2023-10-31T02:13:58;6.03;;;3.03;;
4307;SDS011;2167;53.448;9.984;2023-10-31T02:16:24;5.93;;;2.80;;
4307;SDS011;2167;53.448;9.984;2023-10-31T02:18:50;6.07;;;3.10;;
4307;SDS011;2167;53.448;9.984;2023-10-31T02:21:16;2.60;;;2.40;;
4307;SDS011;2167;53.448;9.984;2023-10-31T02:23:54;4.33;;;2.37;;
4307;SDS011;2167;53.448;9.984;2023-10-31T02:26:21;3.40;;;2.20;;
4307;SDS011;2167;53.448;9.984;2023-10-31T02:28:47;4.87;;;2.50;;
4307;SDS011;2167;53.448;9.984;2023-10-31T02:31:15;5.83;;;3.17;;
4307;SDS011;2167;53.448;9.984;2023-10-31T02:33:41;4.17;;;2.70;;
4307;SDS011;2167;53.448;9.984;2023-10-31T02:36:07;5.47;;;3.03;;
4307;SDS011;2167;53.448;9.984;2023-10-31T02:38:39;4.80;;;3.10;;
4307;SDS011;2167;53.448;9.984;2023-10-31T02:41:13;3.93;;;3.00;;
4307;SDS011;2167;53.448;9.984;2023-10-31T02:43:48;3.33;;;2.60;;
4307;SDS011;2167;53.448;9.984;2023-10-31T02:49:22;2.27;;;2.03;;
4307;SDS011;2167;53.448;9.984;2023-10-31T02:51:48;6.77;;;3.57;;
4307;SDS011;2167;53.448;9.984;2023-10-31T02:54:16;6.73;;;3.10;;
4307;SDS011;2167;53.448;9.984;2023-10-31T03:06:33;4.30;;;2.10;;
4307;SDS011;2167;53.448;9.984;2023-10-31T03:08:59;3.93;;;2.37;;
4307;SDS011;2167;53.448;9.984;2023-10-31T03:11:25;7.00;;;2.27;;
4307;SDS011;2167;53.448;9.984;2023-10-31T03:13:51;2.97;;;2.47;;
4307;SDS011;2167;53.448;9.984;2023-10-31T03:16:18;4.40;;;2.70;;
4307;SDS011;2167;53.448;9.984;2023-10-31T03:25:28;3.17;;;1.97;;
4307;SDS011;2167;53.448;9.984;2023-10-31T03:31:12;3.33;;;1.50;;
4307;SDS011;2167;53.448;9.984;2023-10-31T03:34:11;2.50;;;1.80;;
4307;SDS011;2167;53.448;9.984;2023-10-31T03:36:37;3.33;;;2.37;;
4307;SDS011;2167;53.448;9.984;2023-10-31T03:39:03;9.13;;;2.33;;
4307;SDS011;2167;53.448;9.984;2023-10-31T03:41:29;6.07;;;2.57;;
4307;SDS011;2167;53.448;9.984;2023-10-31T03:43:55;3.20;;;2.83;;
4307;SDS011;2167;53.448;9.984;2023-10-31T03:46:21;5.43;;;2.80;;
4307;SDS011;2167;53.448;9.984;2023-10-31T03:48:47;5.10;;;2.40;;
4307;SDS011;2167;53.448;9.984;2023-10-31T03:51:16;3.87;;;3.17;;
4307;SDS011;2167;53.448;9.984;2023-10-31T03:53:42;6.50;;;3.20;;
4307;SDS011;2167;53.448;9.984;2023-10-31T03:56:08;4.13;;;2.37;;
4307;SDS011;2167;53.448;9.984;2023-10-31T03:58:34;4.07;;;3.07;;
4307;SDS011;2167;53.448;9.984;2023-10-31T04:01:00;4.73;;;2.83;;
4307;SDS011;2167;53.448;9.984;2023-10-31T04:03:27;5.90;;;2.70;;
4307;SDS011;2167;53.448;9.984;2023-10-31T04:05:53;4.07;;;3.33;;
4307;SDS011;2167;53.448;9.984;2023-10-31T04:08:19;12.10;;;4.10;;
4307;SDS011;2167;53.448;9.984;2023-10-31T04:10:45;6.13;;;3.60;;
4307;SDS011;2167;53.448;9.984;2023-10-31T04:13:11;11.57;;;3.50;;
4307;SDS011;2167;53.448;9.984;2023-10-31T04:15:37;6.50;;;3.10;;
4307;SDS011;2167;53.448;9.984;2023-10-31T04:18:03;6.37;;;3.27;;
4307;SDS011;2167;53.448;9.984;2023-10-31T04:20:30;4.20;;;3.00;;
4307;SDS011;2167;53.448;9.984;2023-10-31T04:22:56;3.50;;;3.03;;
4307;SDS011;2167;53.448;9.984;2023-10-31T04:25:22;4.53;;;3.57;;
4307;SDS011;2167;53.448;9.984;2023-10-31T04:30:34;7.50;;;3.47;;
4307;SDS011;2167;53.448;9.984;2023-10-31T04:33:02;3.80;;;3.03;;
4307;SDS011;2167;53.448;9.984;2023-10-31T04:35:28;4.77;;;3.70;;
4307;SDS011;2167;53.448;9.984;2023-10-31T04:37:54;6.07;;;4.10;;
4307;SDS011;2167;53.448;9.984;2023-10-31T04:40:21;6.03;;;3.33;;
4307;SDS011;2167;53.448;9.984;2023-10-31T04:42:47;5.37;;;3.90;;
4307;SDS011;2167;53.448;9.984;2023-10-31T04:45:13;6.30;;;3.83;;
4307;SDS011;2167;53.448;9.984;2023-10-31T04:47:42;7.40;;;3.50;;
4307;SDS011;2167;53.448;9.984;2023-10-31T04:50:08;5.17;;;3.77;;
4307;SDS011;2167;53.448;9.984;2023-10-31T04:52:34;4.83;;;3.00;;
4307;SDS011;2167;53.448;9.984;2023-10-31T04:55:00;4.80;;;3.53;;
4307;SDS011;2167;53.448;9.984;2023-10-31T04:57:29;4.40;;;3.37;;
4307;SDS011;2167;53.448;9.984;2023-10-31T04:59:57;4.67;;;3.43;;
4307;SDS011;2167;53.448;9.984;2023-10-31T05:02:24;5.40;;;3.00;;
4307;SDS011;2167;53.448;9.984;2023-10-31T05:04:50;8.03;;;3.47;;
4307;SDS011;2167;53.448;9.984;2023-10-31T05:07:19;5.97;;;3.77;;
4307;SDS011;2167;53.448;9.984;2023-10-31T05:09:48;7.80;;;4.50;;
4307;SDS011;2167;53.448;9.984;2023-10-31T05:12:14;6.70;;;3.80;;
4307;SDS011;2167;53.448;9.984;2023-10-31T05:14:40;5.33;;;3.23;;
4307;SDS011;2167;53.448;9.984;2023-10-31T05:17:06;6.10;;;4.00;;
4307;SDS011;2167;53.448;9.984;2023-10-31T05:19:32;6.70;;;3.60;;
4307;SDS011;2167;53.448;9.984;2023-10-31T05:21:58;7.30;;;4.07;;
4307;SDS011;2167;53.448;9.984;2023-10-31T05:24:24;7.83;;;4.97;;
4307;SDS011;2167;53.448;9.984;2023-10-31T05:26:51;10.73;;;4.87;;
4307;SDS011;2167;53.448;9.984;2023-10-31T05:29:17;6.03;;;4.13;;
4307;SDS011;2167;53.448;9.984;2023-10-31T05:31:43;6.70;;;4.23;;
4307;SDS011;2167;53.448;9.984;2023-10-31T05:34:10;9.10;;;4.87;;
4307;SDS011;2167;53.448;9.984;2023-10-31T05:36:36;9.17;;;5.20;;
4307;SDS011;2167;53.448;9.984;2023-10-31T05:39:02;7.90;;;4.40;;
4307;SDS011;2167;53.448;9.984;2023-10-31T05:41:27;6.90;;;4.50;;
4307;SDS011;2167;53.448;9.984;2023-10-31T05:43:53;5.87;;;4.20;;
4307;SDS011;2167;53.448;9.984;2023-10-31T05:46:19;8.43;;;4.70;;
4307;SDS011;2167;53.448;9.984;2023-10-31T05:48:46;8.50;;;4.33;;
4307;SDS011;2167;53.448;9.984;2023-10-31T05:51:17;6.37;;;4.13;;
4307;SDS011;2167;53.448;9.984;2023-10-31T05:53:44;5.83;;;3.00;;
4307;SDS011;2167;53.448;9.984;2023-10-31T05:56:11;9.10;;;5.17;;
4307;SDS011;2167;53.448;9.984;2023-10-31T05:58:37;7.37;;;4.33;;
4307;SDS011;2167;53.448;9.984;2023-10-31T06:01:03;7.77;;;4.40;;
4307;SDS011;2167;53.448;9.984;2023-10-31T06:03:29;6.90;;;3.90;;
4307;SDS011;2167;53.448;9.984;2023-10-31T06:05:55;7.27;;;3.83;;
4307;SDS011;2167;53.448;9.984;2023-10-31T06:08:21;4.63;;;3.40;;
4307;SDS011;2167;53.448;9.984;2023-10-31T06:10:49;5.03;;;3.50;;
4307;SDS011;2167;53.448;9.984;2023-10-31T06:13:15;6.90;;;2.83;;
4307;SDS011;2167;53.448;9.984;2023-10-31T06:15:41;4.53;;;2.00;;
4307;SDS011;2167;53.448;9.984;2023-10-31T06:18:07;4.17;;;2.80;;
4307;SDS011;2167;53.448;9.984;2023-10-31T06:20:33;3.80;;;2.30;;
4307;SDS011;2167;53.448;9.984;2023-10-31T06:23:01;3.80;;;2.57;;
4307;SDS011;2167;53.448;9.984;2023-10-31T06:25:28;3.42;;;2.30;;
4307;SDS011;2167;53.448;9.984;2023-10-31T06:27:54;6.00;;;1.80;;
4307;SDS011;2167;53.448;9.984;2023-10-31T06:30:23;3.23;;;1.33;;
4307;SDS011;2167;53.448;9.984;2023-10-31T06:32:50;2.40;;;1.70;;
4307;SDS011;2167;53.448;9.984;2023-10-31T06:35:17;1.53;;;1.33;;
4307;SDS011;2167;53.448;9.984;2023-10-31T06:37:42;3.43;;;1.37;;
4307;SDS011;2167;53.448;9.984;2023-10-31T06:40:08;1.37;;;1.00;;
4307;SDS011;2167;53.448;9.984;2023-10-31T06:42:35;0.60;;;0.57;;
4307;SDS011;2167;53.448;9.984;2023-10-31T06:45:01;0.70;;;0.70;;
4307;SDS011;2167;53.448;9.984;2023-10-31T06:47:27;0.57;;;0.57;;
4307;SDS011;2167;53.448;9.984;2023-10-31T06:49:53;6.93;;;0.90;;
4307;SDS011;2167;53.448;9.984;2023-10-31T06:52:19;0.60;;;0.60;;
4307;SDS011;2167;53.448;9.984;2023-10-31T06:54:45;2.83;;;0.87;;
4307;SDS011;2167;53.448;9.984;2023-10-31T06:57:11;0.50;;;0.50;;
4307;SDS011;2167;53.448;9.984;2023-10-31T06:59:37;0.47;;;0.47;;
4307;SDS011;2167;53.448;9.984;2023-10-31T07:02:03;0.90;;;0.50;;
4307;SDS011;2167;53.448;9.984;2023-10-31T07:04:29;0.90;;;0.90;;
4307;SDS011;2167;53.448;9.984;2023-10-31T07:06:54;2.40;;;1.80;;
4307;SDS011;2167;53.448;9.984;2023-10-31T07:09:23;6.30;;;2.83;;
4307;SDS011;2167;53.448;9.984;2023-10-31T07:11:49;4.30;;;2.90;;
4307;SDS011;2167;53.448;9.984;2023-10-31T07:14:15;6.30;;;4.17;;
4307;SDS011;2167;53.448;9.984;2023-10-31T07:16:40;7.23;;;3.70;;
4307;SDS011;2167;53.448;9.984;2023-10-31T07:19:08;10.17;;;5.37;;
4307;SDS011;2167;53.448;9.984;2023-10-31T07:21:34;13.20;;;6.20;;
4307;SDS011;2167;53.448;9.984;2023-10-31T07:24:00;9.80;;;6.50;;
4307;SDS011;2167;53.448;9.984;2023-10-31T07:26:26;8.43;;;5.47;;
4307;SDS011;2167;53.448;9.984;2023-10-31T07:28:52;9.13;;;4.97;;
4307;SDS011;2167;53.448;9.984;2023-10-31T07:31:18;10.07;;;5.33;;
4307;SDS011;2167;53.448;9.984;2023-10-31T07:33:45;8.63;;;4.70;;
4307;SDS011;2167;53.448;9.984;2023-10-31T07:36:11;6.10;;;3.80;;
4307;SDS011;2167;53.448;9.984;2023-10-31T07:38:37;4.03;;;2.80;;
4307;SDS011;2167;53.448;9.984;2023-10-31T07:41:03;1.90;;;1.30;;
4307;SDS011;2167;53.448;9.984;2023-10-31T07:43:29;2.00;;;1.50;;
4307;SDS011;2167;53.448;9.984;2023-10-31T07:45:55;4.23;;;1.60;;
4307;SDS011;2167;53.448;9.984;2023-10-31T07:48:21;1.50;;;0.90;;
4307;SDS011;2167;53.448;9.984;2023-10-31T07:50:47;1.70;;;0.90;;
4307;SDS011;2167;53.448;9.984;2023-10-31T07:53:13;2.33;;;0.73;;
4307;SDS011;2167;53.448;9.984;2023-10-31T07:55:39;0.63;;;0.63;;
4307;SDS011;2167;53.448;9.984;2023-10-31T07:58:05;0.73;;;0.73;;
4307;SDS011;2167;53.448;9.984;2023-10-31T08:00:30;0.40;;;0.40;;
4307;SDS011;2167;53.448;9.984;2023-10-31T08:02:59;0.97;;;0.63;;
4307;SDS011;2167;53.448;9.984;2023-10-31T08:05:25;0.47;;;0.47;;
4307;SDS011;2167;53.448;9.984;2023-10-31T08:07:51;0.40;;;0.40;;
4307;SDS011;2167;53.448;9.984;2023-10-31T08:10:17;0.93;;;0.50;;
4307;SDS011;2167;53.448;9.984;2023-10-31T08:12:43;0.40;;;0.30;;
4307;SDS011;2167;53.448;9.984;2023-10-31T08:15:13;0.70;;;0.30;;
4307;SDS011;2167;53.448;9.984;2023-10-31T08:17:40;0.40;;;0.40;;
4307;SDS011;2167;53.448;9.984;2023-10-31T08:20:06;0.23;;;0.23;;
4307;SDS011;2167;53.448;9.984;2023-10-31T08:22:32;0.93;;;0.40;;
4307;SDS011;2167;53.448;9.984;2023-10-31T08:24:58;1.43;;;0.30;;
4307;SDS011;2167;53.448;9.984;2023-10-31T08:27:24;0.30;;;0.30;;
4307;SDS011;2167;53.448;9.984;2023-10-31T08:29:50;0.90;;;0.37;;
4307;SDS011;2167;53.448;9.984;2023-10-31T08:32:16;0.30;;;0.30;;
4307;SDS011;2167;53.448;9.984;2023-10-31T08:34:43;0.90;;;0.63;;
4307;SDS011;2167;53.448;9.984;2023-10-31T08:37:09;0.30;;;0.30;;
4307;SDS011;2167;53.448;9.984;2023-10-31T08:39:34;0.20;;;0.20;;
4307;SDS011;2167;53.448;9.984;2023-10-31T08:42:00;0.60;;;0.60;;
4307;SDS011;2167;53.448;9.984;2023-10-31T08:44:26;3.43;;;0.37;;
4307;SDS011;2167;53.448;9.984;2023-10-31T08:46:52;0.33;;;0.33;;
4307;SDS011;2167;53.448;9.984;2023-10-31T08:49:18;0.20;;;0.20;;
4307;SDS011;2167;53.448;9.984;2023-10-31T08:51:45;1.40;;;0.60;;
4307;SDS011;2167;53.448;9.984;2023-10-31T08:54:11;0.30;;;0.30;;
4307;SDS011;2167;53.448;9.984;2023-10-31T08:56:37;0.40;;;0.40;;
4307;SDS011;2167;53.448;9.984;2023-10-31T08:59:03;0.30;;;0.30;;
4307;SDS011;2167;53.448;9.984;2023-10-31T09:01:29;0.50;;;0.40;;
4307;SDS011;2167;53.448;9.984;2023-10-31T09:03:55;0.77;;;0.40;;
4307;SDS011;2167;53.448;9.984;2023-10-31T09:06:23;1.43;;;0.37;;
4307;SDS011;2167;53.448;9.984;2023-10-31T09:08:49;0.43;;;0.20;;
4307;SDS011;2167;53.448;9.984;2023-10-31T09:11:15;2.53;;;0.40;;
4307;SDS011;2167;53.448;9.984;2023-10-31T09:13:41;0.30;;;0.30;;
4307;SDS011;2167;53.448;9.984;2023-10-31T09:16:07;0.70;;;0.40;;
4307;SDS011;2167;53.448;9.984;2023-10-31T09:18:33;0.67;;;0.40;;
4307;SDS011;2167;53.448;9.984;2023-10-31T09:20:59;0.20;;;0.20;;
4307;SDS011;2167;53.448;9.984;2023-10-31T09:23:25;1.70;;;0.37;;
4307;SDS011;2167;53.448;9.984;2023-10-31T09:25:51;0.20;;;0.20;;
4307;SDS011;2167;53.448;9.984;2023-10-31T09:28:17;0.33;;;0.33;;
4307;SDS011;2167;53.448;9.984;2023-10-31T09:30:43;0.30;;;0.20;;
4307;SDS011;2167;53.448;9.984;2023-10-31T09:33:10;0.30;;;0.30;;
4307;SDS011;2167;53.448;9.984;2023-10-31T09:35:36;0.30;;;0.30;;
4307;SDS011;2167;53.448;9.984;2023-10-31T09:38:02;0.67;;;0.53;;
4307;SDS011;2167;53.448;9.984;2023-10-31T09:40:27;0.30;;;0.20;;
4307;SDS011;2167;53.448;9.984;2023-10-31T09:42:54;1.03;;;0.60;;
4307;SDS011;2167;53.448;9.984;2023-10-31T09:45:21;0.67;;;0.30;;
4307;SDS011;2167;53.448;9.984;2023-10-31T09:47:47;0.20;;;0.20;;
4307;SDS011;2167;53.448;9.984;2023-10-31T09:50:13;0.30;;;0.20;;
4307;SDS011;2167;53.448;9.984;2023-10-31T09:52:39;0.23;;;0.23;;
4307;SDS011;2167;53.448;9.984;2023-10-31T09:55:05;0.30;;;0.30;;
4307;SDS011;2167;53.448;9.984;2023-10-31T09:57:32;0.87;;;0.40;;
4307;SDS011;2167;53.448;9.984;2023-10-31T09:59:58;0.30;;;0.30;;
4307;SDS011;2167;53.448;9.984;2023-10-31T10:02:24;0.43;;;0.40;;
4307;SDS011;2167;53.448;9.984;2023-10-31T10:04:51;1.03;;;0.60;;
4307;SDS011;2167;53.448;9.984;2023-10-31T10:07:17;0.57;;;0.57;;
4307;SDS011;2167;53.448;9.984;2023-10-31T10:09:44;1.47;;;0.50;;
4307;SDS011;2167;53.448;9.984;2023-10-31T10:12:11;1.60;;;0.57;;
4307;SDS011;2167;53.448;9.984;2023-10-31T10:14:38;0.50;;;0.50;;
4307;SDS011;2167;53.448;9.984;2023-10-31T10:17:23;2.00;;;0.77;;
4307;SDS011;2167;53.448;9.984;2023-10-31T10:20:08;0.60;;;0.60;;
4307;SDS011;2167;53.448;9.984;2023-10-31T10:22:37;0.37;;;0.37;;
4307;SDS011;2167;53.448;9.984;2023-10-31T10:25:05;0.60;;;0.60;;
4307;SDS011;2167;53.448;9.984;2023-10-31T10:27:31;0.60;;;0.40;;
4307;SDS011;2167;53.448;9.984;2023-10-31T10:29:57;0.60;;;0.47;;
4307;SDS011;2167;53.448;9.984;2023-10-31T10:32:23;0.40;;;0.40;;
4307;SDS011;2167;53.448;9.984;2023-10-31T10:34:49;0.60;;;0.60;;
4307;SDS011;2167;53.448;9.984;2023-10-31T10:37:15;0.90;;;0.40;;
4307;SDS011;2167;53.448;9.984;2023-10-31T10:39:42;0.73;;;0.50;;
4307;SDS011;2167;53.448;9.984;2023-10-31T10:42:15;0.57;;;0.50;;
4307;SDS011;2167;53.448;9.984;2023-10-31T10:44:44;0.77;;;0.73;;
4307;SDS011;2167;53.448;9.984;2023-10-31T10:47:12;0.60;;;0.60;;
4307;SDS011;2167;53.448;9.984;2023-10-31T10:49:40;0.50;;;0.50;;
4307;SDS011;2167;53.448;9.984;2023-10-31T10:52:22;1.33;;;0.60;;
4307;SDS011;2167;53.448;9.984;2023-10-31T10:57:36;1.03;;;0.50;;
4307;SDS011;2167;53.448;9.984;2023-10-31T11:00:04;1.07;;;0.50;;
4307;SDS011;2167;53.448;9.984;2023-10-31T11:02:33;0.80;;;0.80;;
4307;SDS011;2167;53.448;9.984;2023-10-31T11:05:00;0.67;;;0.50;;
4307;SDS011;2167;53.448;9.984;2023-10-31T11:07:27;0.53;;;0.50;;
4307;SDS011;2167;53.448;9.984;2023-10-31T11:09:55;1.20;;;0.73;;
4307;SDS011;2167;53.448;9.984;2023-10-31T11:12:23;0.50;;;0.50;;
4307;SDS011;2167;53.448;9.984;2023-10-31T11:14:49;0.43;;;0.43;;
4307;SDS011;2167;53.448;9.984;2023-10-31T11:17:34;0.40;;;0.40;;
4307;SDS011;2167;53.448;9.984;2023-10-31T11:20:00;0.40;;;0.40;;
4307;SDS011;2167;53.448;9.984;2023-10-31T11:22:36;2.00;;;0.50;;
4307;SDS011;2167;53.448;9.984;2023-10-31T11:25:02;0.67;;;0.40;;
4307;SDS011;2167;53.448;9.984;2023-10-31T11:27:29;0.40;;;0.40;;
4307;SDS011;2167;53.448;9.984;2023-10-31T11:29:55;0.33;;;0.33;;
4307;SDS011;2167;53.448;9.984;2023-10-31T11:32:21;1.70;;;0.53;;
4307;SDS011;2167;53.448;9.984;2023-10-31T11:34:47;1.10;;;0.60;;
4307;SDS011;2167;53.448;9.984;2023-10-31T11:37:23;0.30;;;0.27;;
4307;SDS011;2167;53.448;9.984;2023-10-31T11:40:14;1.47;;;0.43;;
4307;SDS011;2167;53.448;9.984;2023-10-31T11:42:41;0.67;;;0.40;;
4307;SDS011;2167;53.448;9.984;2023-10-31T11:45:10;0.60;;;0.47;;
4307;SDS011;2167;53.448;9.984;2023-10-31T11:47:46;1.20;;;0.40;;
4307;SDS011;2167;53.448;9.984;2023-10-31T11:50:12;0.70;;;0.70;;
4307;SDS011;2167;53.448;9.984;2023-10-31T11:52:38;0.67;;;0.50;;
4307;SDS011;2167;53.448;9.984;2023-10-31T11:55:05;0.60;;;0.50;;
4307;SDS011;2167;53.448;9.984;2023-10-31T11:57:34;0.70;;;0.50;;
4307;SDS011;2167;53.448;9.984;2023-10-31T12:00:00;0.70;;;0.40;;
4307;SDS011;2167;53.448;9.984;2023-10-31T12:02:26;1.57;;;0.43;;
4307;SDS011;2167;53.448;9.984;2023-10-31T12:05:05;0.70;;;0.40;;
4307;SDS011;2167;53.448;9.984;2023-10-31T12:07:41;0.90;;;0.40;;
4307;SDS011;2167;53.448;9.984;2023-10-31T12:10:07;3.20;;;0.77;;
4307;SDS011;2167;53.448;9.984;2023-10-31T12:12:33;0.60;;;0.60;;
4307;SDS011;2167;53.448;9.984;2023-10-31T12:15:07;0.70;;;0.70;;
4307;SDS011;2167;53.448;9.984;2023-10-31T12:17:34;0.40;;;0.40;;
4307;SDS011;2167;53.448;9.984;2023-10-31T12:20:03;0.60;;;0.60;;
4307;SDS011;2167;53.448;9.984;2023-10-31T12:22:29;0.97;;;0.50;;
4307;SDS011;2167;53.448;9.984;2023-10-31T12:25:05;0.60;;;0.40;;
4307;SDS011;2167;53.448;9.984;2023-10-31T12:30:10;0.70;;;0.67;;
4307;SDS011;2167;53.448;9.984;2023-10-31T12:32:41;0.50;;;0.37;;
4307;SDS011;2167;53.448;9.984;2023-10-31T12:35:14;0.33;;;0.33;;
4307;SDS011;2167;53.448;9.984;2023-10-31T12:37:44;1.50;;;0.83;;
4307;SDS011;2167;53.448;9.984;2023-10-31T12:40:20;0.33;;;0.33;;
4307;SDS011;2167;53.448;9.984;2023-10-31T12:42:47;1.20;;;0.40;;
4307;SDS011;2167;53.448;9.984;2023-10-31T12:45:14;1.17;;;0.47;;
4307;SDS011;2167;53.448;9.984;2023-10-31T12:47:42;1.07;;;0.50;;
4307;SDS011;2167;53.448;9.984;2023-10-31T12:50:12;1.47;;;0.67;;
4307;SDS011;2167;53.448;9.984;2023-10-31T12:52:45;5.60;;;0.93;;
4307;SDS011;2167;53.448;9.984;2023-10-31T12:55:12;0.30;;;0.30;;
4307;SDS011;2167;53.448;9.984;2023-10-31T12:57:38;0.60;;;0.47;;
4307;SDS011;2167;53.448;9.984;2023-10-31T13:00:04;3.80;;;0.67;;
4307;SDS011;2167;53.448;9.984;2023-10-31T13:02:34;1.73;;;0.43;;
4307;SDS011;2167;53.448;9.984;2023-10-31T13:07:35;0.50;;;0.50;;
4307;SDS011;2167;53.448;9.984;2023-10-31T13:10:01;0.60;;;0.37;;
4307;SDS011;2167;53.448;9.984;2023-10-31T13:12:29;0.40;;;0.40;;
4307;SDS011;2167;53.448;9.984;2023-10-31T13:14:55;1.23;;;0.50;;
4307;SDS011;2167;53.448;9.984;2023-10-31T13:17:21;0.57;;;0.50;;
4307;SDS011;2167;53.448;9.984;2023-10-31T13:19:47;0.50;;;0.40;;
4307;SDS011;2167;53.448;9.984;2023-10-31T13:22:13;0.83;;;0.60;;
4307;SDS011;2167;53.448;9.984;2023-10-31T13:24:39;0.60;;;0.60;;
4307;SDS011;2167;53.448;9.984;2023-10-31T13:27:08;0.27;;;0.27;;
4307;SDS011;2167;53.448;9.984;2023-10-31T13:29:36;2.23;;;0.53;;
4307;SDS011;2167;53.448;9.984;2023-10-31T13:32:03;0.40;;;0.33;;
4307;SDS011;2167;53.448;9.984;2023-10-31T13:34:29;0.47;;;0.47;;
4307;SDS011;2167;53.448;9.984;2023-10-31T13:36:57;0.87;;;0.60;;
4307;SDS011;2167;53.448;9.984;2023-10-31T13:39:23;0.53;;;0.53;;
4307;SDS011;2167;53.448;9.984;2023-10-31T13:41:49;0.93;;;0.40;;
4307;SDS011;2167;53.448;9.984;2023-10-31T13:44:19;8.60;;;0.77;;
4307;SDS011;2167;53.448;9.984;2023-10-31T13:46:45;0.30;;;0.30;;
4307;SDS011;2167;53.448;9.984;2023-10-31T13:49:11;0.50;;;0.50;;
4307;SDS011;2167;53.448;9.984;2023-10-31T13:51:37;2.00;;;0.43;;
4307;SDS011;2167;53.448;9.984;2023-10-31T13:54:03;0.83;;;0.40;;
4307;SDS011;2167;53.448;9.984;2023-10-31T13:56:29;5.43;;;1.17;;
4307;SDS011;2167;53.448;9.984;2023-10-31T13:58:55;1.27;;;1.07;;
4307;SDS011;2167;53.448;9.984;2023-10-31T14:01:21;1.47;;;1.17;;
4307;SDS011;2167;53.448;9.984;2023-10-31T14:03:49;4.23;;;1.77;;
4307;SDS011;2167;53.448;9.984;2023-10-31T14:06:15;0.90;;;0.80;;
4307;SDS011;2167;53.448;9.984;2023-10-31T14:08:42;1.67;;;1.10;;
4307;SDS011;2167;53.448;9.984;2023-10-31T14:11:08;0.93;;;0.80;;
4307;SDS011;2167;53.448;9.984;2023-10-31T14:13:37;1.07;;;0.80;;
4307;SDS011;2167;53.448;9.984;2023-10-31T14:16:04;2.00;;;0.83;;
4307;SDS011;2167;53.448;9.984;2023-10-31T14:18:30;0.70;;;0.50;;
4307;SDS011;2167;53.448;9.984;2023-10-31T14:20:56;0.43;;;0.43;;
4307;SDS011;2167;53.448;9.984;2023-10-31T14:23:22;0.90;;;0.50;;
4307;SDS011;2167;53.448;9.984;2023-10-31T14:25:49;0.50;;;0.50;;
4307;SDS011;2167;53.448;9.984;2023-10-31T14:28:15;0.40;;;0.37;;
4307;SDS011;2167;53.448;9.984;2023-10-31T14:30:41;2.63;;;1.37;;
4307;SDS011;2167;53.448;9.984;2023-10-31T14:33:07;0.90;;;0.70;;
4307;SDS011;2167;53.448;9.984;2023-10-31T14:35:33;0.97;;;0.80;;
4307;SDS011;2167;53.448;9.984;2023-10-31T14:38:00;0.77;;;0.77;;
4307;SDS011;2167;53.448;9.984;2023-10-31T14:40:26;2.00;;;0.40;;
4307;SDS011;2167;53.448;9.984;2023-10-31T14:42:52;2.60;;;0.70;;
4307;SDS011;2167;53.448;9.984;2023-10-31T14:45:18;0.93;;;0.50;;
4307;SDS011;2167;53.448;9.984;2023-10-31T14:47:44;1.47;;;0.50;;
4307;SDS011;2167;53.448;9.984;2023-10-31T14:50:10;4.20;;;0.60;;
4307;SDS011;2167;53.448;9.984;2023-10-31T14:52:36;1.57;;;0.67;;
4307;SDS011;2167;53.448;9.984;2023-10-31T14:55:02;0.73;;;0.50;;
4307;SDS011;2167;53.448;9.984;2023-10-31T14:57:29;1.13;;;0.53;;
4307;SDS011;2167;53.448;9.984;2023-10-31T14:59:56;1.33;;;0.67;;
4307;SDS011;2167;53.448;9.984;2023-10-31T15:02:22;0.60;;;0.60;;
4307;SDS011;2167;53.448;9.984;2023-10-31T15:04:48;0.50;;;0.50;;
4307;SDS011;2167;53.448;9.984;2023-10-31T15:07:14;0.80;;;0.80;;
4307;SDS011;2167;53.448;9.984;2023-10-31T15:09:40;1.60;;;0.73;;
4307;SDS011;2167;53.448;9.984;2023-10-31T15:12:06;1.53;;;1.27;;
4307;SDS011;2167;53.448;9.984;2023-10-31T15:14:32;1.87;;;0.47;;
4307;SDS011;2167;53.448;9.984;2023-10-31T15:16:58;1.07;;;0.73;;
4307;SDS011;2167;53.448;9.984;2023-10-31T15:19:24;0.60;;;0.60;;
4307;SDS011;2167;53.448;9.984;2023-10-31T15:21:50;1.23;;;0.60;;
4307;SDS011;2167;53.448;9.984;2023-10-31T15:24:17;1.17;;;0.80;;
4307;SDS011;2167;53.448;9.984;2023-10-31T15:26:43;1.17;;;0.70;;
4307;SDS011;2167;53.448;9.984;2023-10-31T15:29:09;0.93;;;0.30;;
4307;SDS011;2167;53.448;9.984;2023-10-31T15:31:35;0.43;;;0.43;;
4307;SDS011;2167;53.448;9.984;2023-10-31T15:34:01;0.80;;;0.50;;
4307;SDS011;2167;53.448;9.984;2023-10-31T15:36:28;1.53;;;0.80;;
4307;SDS011;2167;53.448;9.984;2023-10-31T15:38:54;1.23;;;0.40;;
4307;SDS011;2167;53.448;9.984;2023-10-31T15:41:20;1.30;;;0.80;;
4307;SDS011;2167;53.448;9.984;2023-10-31T15:43:46;0.93;;;0.47;;
4307;SDS011;2167;53.448;9.984;2023-10-31T15:46:12;0.40;;;0.30;;
4307;SDS011;2167;53.448;9.984;2023-10-31T15:48:38;0.67;;;0.60;;
4307;SDS011;2167;53.448;9.984;2023-10-31T15:51:04;5.53;;;0.70;;
4307;SDS011;2167;53.448;9.984;2023-10-31T15:53:30;0.57;;;0.40;;